createdAt,value
2017-07-10T00:00:40.603Z,98084.44
2017-07-10T00:03:10.058Z,98076.58
2017-07-10T00:05:39.539Z,98061.45
2017-07-10T00:08:08.994Z,98042.95
2017-07-10T00:10:38.464Z,98035.47
2017-07-10T00:13:07.901Z,98037.17
2017-07-10T00:15:37.361Z,98041.49
2017-07-10T00:18:06.817Z,98075.88
2017-07-10T00:20:36.257Z,98087.13
2017-07-10T00:23:05.706Z,98083.02
2017-07-10T00:25:35.157Z,98081.00
2017-07-10T00:28:04.617Z,98069.34
2017-07-10T00:30:34.078Z,98057.69
2017-07-10T00:33:03.552Z,98070.55
2017-07-10T00:35:33.025Z,98082.61
2017-07-10T00:38:02.467Z,98095.02
2017-07-10T00:40:31.919Z,98100.56
2017-07-10T00:43:01.406Z,98105.39
2017-07-10T00:45:31.122Z,98104.36
2017-07-10T00:48:00.586Z,98101.92
2017-07-10T00:50:30.033Z,98101.70
2017-07-10T00:52:59.301Z,98107.38
2017-07-10T00:55:28.759Z,98109.89
2017-07-10T00:57:58.334Z,98105.84
2017-07-10T01:00:27.774Z,98100.72
2017-07-10T01:02:57.079Z,98104.25
2017-07-10T01:05:26.524Z,98092.36
2017-07-10T01:07:55.977Z,98076.17
2017-07-10T01:10:25.257Z,98078.85
2017-07-10T01:12:54.724Z,98088.72
2017-07-10T01:15:24.159Z,98093.91
2017-07-10T01:17:53.645Z,98089.73
2017-07-10T01:20:23.100Z,98097.98
2017-07-10T01:22:52.548Z,98090.41
2017-07-10T01:25:22.007Z,98080.02
2017-07-10T01:27:51.473Z,98083.36
2017-07-10T01:30:20.918Z,98084.16
2017-07-10T01:32:50.386Z,98080.34
2017-07-10T01:35:19.850Z,98077.22
2017-07-10T01:37:49.122Z,98077.61
2017-07-10T01:40:18.571Z,98077.73
2017-07-10T01:42:48.028Z,98079.86
2017-07-10T01:45:17.489Z,98081.10
2017-07-10T01:47:46.766Z,98082.83
2017-07-10T01:50:16.220Z,98084.16
2017-07-10T01:52:45.321Z,98086.64
2017-07-10T01:55:14.782Z,98078.66
2017-07-10T01:57:44.234Z,98083.38
2017-07-10T02:00:14.413Z,98088.42
2017-07-10T02:02:43.715Z,98084.89
2017-07-10T02:05:12.812Z,98083.22
2017-07-10T02:07:42.276Z,98074.33
2017-07-10T02:10:11.712Z,98062.94
2017-07-10T02:12:41.177Z,98051.09
2017-07-10T02:15:10.629Z,98054.75
2017-07-10T02:17:40.090Z,98042.06
2017-07-10T02:20:09.560Z,98035.39
2017-07-10T02:22:39.119Z,98037.28
2017-07-10T02:25:08.578Z,98047.78
2017-07-10T02:27:38.034Z,98057.16
2017-07-10T02:30:07.485Z,98060.27
2017-07-10T02:32:36.934Z,98053.11
2017-07-10T02:35:06.392Z,98050.92
2017-07-10T02:37:35.852Z,98045.72
2017-07-10T02:40:05.307Z,98050.26
2017-07-10T02:42:34.756Z,98043.59
2017-07-10T02:45:04.021Z,98039.58
2017-07-10T02:47:33.505Z,98037.95
2017-07-10T02:50:02.616Z,98045.99
2017-07-10T02:52:32.061Z,98048.88
2017-07-10T02:55:01.529Z,98052.89
2017-07-10T02:57:30.980Z,98056.32
2017-07-10T03:00:00.455Z,98056.40
2017-07-10T03:02:29.914Z,98067.05
2017-07-10T03:04:59.359Z,98053.31
2017-07-10T03:07:28.817Z,98055.30
2017-07-10T03:09:58.323Z,98041.37
2017-07-10T03:12:27.765Z,98043.52
2017-07-10T03:14:57.224Z,98049.63
2017-07-10T03:17:26.666Z,98045.58
2017-07-10T03:19:56.113Z,98047.28
2017-07-10T03:22:25.571Z,98040.38
2017-07-10T03:24:55.022Z,98050.59
2017-07-10T03:27:24.491Z,98060.72
2017-07-10T03:29:53.600Z,98051.47
2017-07-10T03:32:22.739Z,98049.84
2017-07-10T03:34:52.184Z,98049.05
2017-07-10T03:37:21.316Z,98053.80
2017-07-10T03:39:50.753Z,98058.21
2017-07-10T03:42:20.227Z,98057.69
2017-07-10T03:44:49.685Z,98063.50
2017-07-10T03:47:19.141Z,98064.18
2017-07-10T03:49:48.589Z,98064.61
2017-07-10T03:52:18.047Z,98067.89
2017-07-10T03:54:47.506Z,98081.84
2017-07-10T03:57:16.985Z,98082.92
2017-07-10T03:59:46.435Z,98069.68
2017-07-10T04:02:15.885Z,98067.69
2017-07-10T04:04:45.347Z,98083.37
2017-07-10T04:07:15.051Z,98092.46
2017-07-10T04:09:44.526Z,98087.03
2017-07-10T04:12:13.966Z,98085.45
2017-07-10T04:14:43.424Z,98077.98
2017-07-10T04:17:12.870Z,98076.42
2017-07-10T04:19:42.326Z,98082.22
2017-07-10T04:22:11.775Z,98080.55
2017-07-10T04:24:41.237Z,98084.20
2017-07-10T04:27:10.685Z,98095.12
2017-07-10T04:29:40.148Z,98102.89
2017-07-10T04:32:09.598Z,98101.13
2017-07-10T04:34:38.859Z,98104.41
2017-07-10T04:37:08.604Z,98107.41
2017-07-10T04:39:38.386Z,98105.24
2017-07-10T04:42:08.140Z,98103.38
2017-07-10T04:44:37.606Z,98097.56
2017-07-10T04:47:07.081Z,98094.83
2017-07-10T04:49:36.553Z,98101.72
2017-07-10T04:52:06.007Z,98102.63
2017-07-10T04:54:35.470Z,98103.59
2017-07-10T04:57:04.958Z,98106.16
2017-07-10T04:59:34.402Z,98122.08
2017-07-10T05:02:03.845Z,98128.09
2017-07-10T05:04:33.311Z,98143.35
2017-07-10T05:07:02.764Z,98147.92
2017-07-10T05:09:32.237Z,98142.54
2017-07-10T05:12:01.752Z,98147.61
2017-07-10T05:14:31.205Z,98162.00
2017-07-10T05:17:00.678Z,98175.33
2017-07-10T05:19:30.146Z,98177.23
2017-07-10T05:21:59.611Z,98175.37
2017-07-10T05:24:29.049Z,98171.56
2017-07-10T05:26:58.554Z,98173.02
2017-07-10T05:29:27.980Z,98176.47
2017-07-10T05:31:57.437Z,98171.22
2017-07-10T05:34:26.893Z,98175.92
2017-07-10T05:36:56.333Z,98173.79
2017-07-10T05:39:25.794Z,98171.84
2017-07-10T05:41:55.249Z,98175.39
2017-07-10T05:44:24.693Z,98173.36
2017-07-10T05:46:54.166Z,98181.39
2017-07-10T05:49:23.627Z,98170.80
2017-07-10T05:51:53.070Z,98171.98
2017-07-10T05:54:22.517Z,98169.30
2017-07-10T05:56:51.986Z,98157.11
2017-07-10T05:59:21.422Z,98151.58
2017-07-10T06:01:50.885Z,98164.36
2017-07-10T06:04:20.338Z,98169.47
2017-07-10T06:06:49.790Z,98168.41
2017-07-10T06:09:19.234Z,98169.25
2017-07-10T06:11:48.691Z,98168.09
2017-07-10T06:14:18.138Z,98167.47
2017-07-10T06:16:47.606Z,98162.12
2017-07-10T06:19:17.052Z,98164.31
2017-07-10T06:21:46.508Z,98166.99
2017-07-10T06:24:15.963Z,98160.77
2017-07-10T06:26:47.054Z,98156.56
2017-07-10T06:29:16.515Z,98172.79
2017-07-10T06:31:45.953Z,98163.22
2017-07-10T06:34:15.405Z,98165.16
2017-07-10T06:36:44.913Z,98172.34
2017-07-10T06:39:14.178Z,98180.15
2017-07-10T06:41:43.644Z,98168.97
2017-07-10T06:44:13.190Z,98152.87
2017-07-10T06:46:42.657Z,98149.84
2017-07-10T06:49:11.912Z,98136.89
2017-07-10T06:51:41.363Z,98136.66
2017-07-10T06:54:10.810Z,98134.74
2017-07-10T06:56:40.251Z,98135.80
2017-07-10T06:59:09.708Z,98157.34
2017-07-10T07:01:39.154Z,98152.12
2017-07-10T07:04:08.619Z,98142.81
2017-07-10T07:06:38.059Z,98136.02
2017-07-10T07:09:07.530Z,98140.22
2017-07-10T07:11:37.001Z,98142.08
2017-07-10T07:14:06.474Z,98141.33
2017-07-10T07:16:35.930Z,98140.38
2017-07-10T07:19:05.380Z,98146.91
2017-07-10T07:21:34.825Z,98147.91
2017-07-10T07:24:04.281Z,98141.15
2017-07-10T07:26:33.728Z,98136.50
2017-07-10T07:29:03.175Z,98138.83
2017-07-10T07:31:32.700Z,98116.70
2017-07-10T07:34:02.129Z,98104.67
2017-07-10T07:36:31.592Z,98082.60
2017-07-10T07:39:01.034Z,98090.44
2017-07-10T07:41:30.482Z,98076.98
2017-07-10T07:43:59.937Z,98060.98
2017-07-10T07:46:29.390Z,98073.14
2017-07-10T07:48:58.846Z,98101.47
2017-07-10T07:51:28.295Z,98104.30
2017-07-10T07:53:57.743Z,98114.58
2017-07-10T07:56:27.193Z,98106.84
2017-07-10T07:58:57.450Z,98105.48
2017-07-10T08:01:26.916Z,98121.38
2017-07-10T08:03:56.402Z,98135.16
2017-07-10T08:06:25.864Z,98147.61
2017-07-10T08:08:55.288Z,98140.20
2017-07-10T08:11:24.749Z,98140.55
2017-07-10T08:13:54.207Z,98136.70
2017-07-10T08:16:23.655Z,98131.38
2017-07-10T08:18:53.109Z,98129.69
2017-07-10T08:21:22.540Z,98120.81
2017-07-10T08:23:51.977Z,98118.44
2017-07-10T08:26:21.437Z,98110.31
2017-07-10T08:28:50.893Z,98115.22
2017-07-10T08:31:20.327Z,98119.39
2017-07-10T08:33:49.775Z,98122.56
2017-07-10T08:36:19.406Z,98119.66
2017-07-10T08:38:48.951Z,98113.50
2017-07-10T08:41:18.401Z,98111.19
2017-07-10T08:43:47.850Z,98112.14
2017-07-10T08:46:17.294Z,98114.38
2017-07-10T08:48:46.767Z,98113.42
2017-07-10T08:51:16.215Z,98110.62
2017-07-10T08:53:45.671Z,98113.54
2017-07-10T08:56:15.120Z,98113.46
2017-07-10T08:58:44.585Z,98115.38
2017-07-10T09:01:14.026Z,98109.30
2017-07-10T09:03:43.157Z,98105.48
2017-07-10T09:06:12.628Z,98111.80
2017-07-10T09:08:42.072Z,98108.37
2017-07-10T09:11:11.547Z,98097.61
2017-07-10T09:13:40.993Z,98103.22
2017-07-10T09:16:10.457Z,98099.90
2017-07-10T09:18:39.926Z,98105.63
2017-07-10T09:21:09.400Z,98098.49
2017-07-10T09:23:38.848Z,98103.30
2017-07-10T09:26:08.309Z,98103.30
2017-07-10T09:28:37.773Z,98101.29
2017-07-10T09:31:07.225Z,98099.23
2017-07-10T09:33:36.681Z,98099.75
2017-07-10T09:36:06.152Z,98098.30
2017-07-10T09:38:35.601Z,98092.91
2017-07-10T09:41:05.064Z,98092.62
2017-07-10T09:43:34.526Z,98092.21
2017-07-10T09:46:03.980Z,98092.88
2017-07-10T09:48:33.441Z,98090.85
2017-07-10T09:51:02.892Z,98094.00
2017-07-10T09:53:33.257Z,98094.98
2017-07-10T09:56:02.895Z,98097.66
2017-07-10T09:58:32.325Z,98092.92
2017-07-10T10:01:01.785Z,98100.57
2017-07-10T10:03:31.246Z,98104.81
2017-07-10T10:06:00.690Z,98106.10
2017-07-10T10:08:30.161Z,98114.85
2017-07-10T10:10:59.602Z,98118.59
2017-07-10T10:13:29.785Z,98108.50
2017-07-10T10:15:59.246Z,98110.39
2017-07-10T10:18:28.693Z,98122.63
2017-07-10T10:20:57.828Z,98117.36
2017-07-10T10:23:27.257Z,98117.30
2017-07-10T10:25:56.713Z,98118.53
2017-07-10T10:28:26.158Z,98113.14
2017-07-10T10:30:55.607Z,98113.50
2017-07-10T10:33:25.054Z,98111.88
2017-07-10T10:35:54.505Z,98114.14
2017-07-10T10:38:23.962Z,98114.38
2017-07-10T10:40:53.421Z,98109.02
2017-07-10T10:43:22.889Z,98114.67
2017-07-10T10:45:52.342Z,98112.63
2017-07-10T10:48:21.794Z,98110.27
2017-07-10T10:50:51.247Z,98109.82
2017-07-10T10:53:20.702Z,98115.58
2017-07-10T10:55:50.152Z,98111.37
2017-07-10T10:58:19.603Z,98099.86
2017-07-10T11:00:49.072Z,98105.48
2017-07-10T11:03:18.538Z,98108.13
2017-07-10T11:05:48.001Z,98103.83
2017-07-10T11:08:17.489Z,98098.38
2017-07-10T11:10:46.940Z,98098.59
2017-07-10T11:13:16.400Z,98106.19
2017-07-10T11:15:46.149Z,98087.90
2017-07-10T11:18:15.401Z,98089.08
2017-07-10T11:20:44.866Z,98090.48
2017-07-10T11:23:14.321Z,98088.13
2017-07-10T11:25:43.765Z,98090.58
2017-07-10T11:28:13.206Z,98087.13
2017-07-10T11:30:42.657Z,98098.88
2017-07-10T11:33:12.122Z,98088.67
2017-07-10T11:35:41.566Z,98094.72
2017-07-10T11:38:11.016Z,98092.56
2017-07-10T11:40:40.487Z,98098.14
2017-07-10T11:43:09.925Z,98091.36
2017-07-10T11:45:39.377Z,98089.81
2017-07-10T11:48:08.825Z,98087.56
2017-07-10T11:50:38.275Z,98090.42
2017-07-10T11:53:07.812Z,98090.29
2017-07-10T11:55:37.249Z,98088.25
2017-07-10T11:58:06.695Z,98088.26
2017-07-10T12:00:36.144Z,98097.60
2017-07-10T12:03:05.681Z,98085.80
2017-07-10T12:05:35.121Z,98081.41
2017-07-10T12:08:04.566Z,98097.03
2017-07-10T12:10:34.019Z,98086.55
2017-07-10T12:13:03.278Z,98089.45
2017-07-10T12:15:32.989Z,98084.59
2017-07-10T12:18:02.445Z,98092.33
2017-07-10T12:20:31.901Z,98081.41
2017-07-10T12:23:01.353Z,98082.72
2017-07-10T12:25:30.803Z,98094.37
2017-07-10T12:28:00.274Z,98096.05
2017-07-10T12:30:29.728Z,98081.63
2017-07-10T12:32:59.194Z,98085.69
2017-07-10T12:35:28.638Z,98075.75
2017-07-10T12:37:58.094Z,98073.94
2017-07-10T12:40:27.525Z,98067.27
2017-07-10T12:42:56.978Z,98064.67
2017-07-10T12:45:26.449Z,98065.80
2017-07-10T12:47:55.995Z,98062.07
2017-07-10T12:50:25.453Z,98062.89
2017-07-10T12:52:54.906Z,98061.35
2017-07-10T12:55:24.338Z,98065.87
2017-07-10T12:57:53.799Z,98050.92
2017-07-10T13:00:23.242Z,98056.53
2017-07-10T13:02:52.698Z,98054.81
2017-07-10T13:05:22.144Z,98060.52
2017-07-10T13:07:51.625Z,98061.03
2017-07-10T13:10:21.117Z,98055.73
2017-07-10T13:12:51.421Z,98048.83
2017-07-10T13:15:20.682Z,98051.41
2017-07-10T13:17:50.142Z,98046.11
2017-07-10T13:20:19.602Z,98054.34
2017-07-10T13:22:49.073Z,98038.16
2017-07-10T13:25:18.527Z,98054.97
2017-07-10T13:27:47.981Z,98032.51
2017-07-10T13:30:17.449Z,98032.87
2017-07-10T13:32:46.901Z,98036.91
2017-07-10T13:35:16.348Z,98040.28
2017-07-10T13:37:45.805Z,98037.33
2017-07-10T13:40:15.250Z,98030.17
2017-07-10T13:42:44.715Z,98029.99
2017-07-10T13:45:14.227Z,98023.72
2017-07-10T13:47:43.684Z,98031.91
2017-07-10T13:50:13.141Z,98023.25
2017-07-10T13:52:42.603Z,98024.57
2017-07-10T13:55:12.090Z,98014.75
2017-07-10T13:57:41.521Z,98022.73
2017-07-10T14:00:10.968Z,98011.47
2017-07-10T14:02:40.421Z,98003.36
2017-07-10T14:05:09.870Z,98004.40
2017-07-10T14:07:39.313Z,98010.64
2017-07-10T14:10:08.770Z,98007.75
2017-07-10T14:12:38.230Z,98005.27
2017-07-10T14:15:07.682Z,97998.68
2017-07-10T14:17:36.776Z,98008.59
2017-07-10T14:20:06.241Z,98013.86
2017-07-10T14:22:35.701Z,97995.80
2017-07-10T14:25:05.166Z,97999.34
2017-07-10T14:27:34.625Z,97996.80
2017-07-10T14:30:04.187Z,97993.98
2017-07-10T14:32:33.658Z,97996.52
2017-07-10T14:35:03.114Z,97999.73
2017-07-10T14:37:32.567Z,97999.73
2017-07-10T14:40:02.021Z,97995.88
2017-07-10T14:42:31.477Z,97993.45
2017-07-10T14:45:00.935Z,97979.80
2017-07-10T14:47:30.434Z,97977.73
2017-07-10T14:49:59.878Z,97978.13
2017-07-10T14:52:29.321Z,97974.88
2017-07-10T14:54:58.785Z,97975.04
2017-07-10T14:57:28.217Z,97972.80
2017-07-10T14:59:57.674Z,97981.48
2017-07-10T15:02:27.137Z,97987.66
2017-07-10T15:04:56.627Z,97977.06
2017-07-10T15:07:26.107Z,97971.88
2017-07-10T15:09:55.399Z,97969.22
2017-07-10T15:12:24.866Z,97967.80
2017-07-10T15:14:54.594Z,97967.20
2017-07-10T15:17:25.151Z,97953.86
2017-07-10T15:19:54.792Z,97958.01
2017-07-10T15:22:24.317Z,97965.39
2017-07-10T15:24:54.067Z,97958.17
2017-07-10T15:27:23.515Z,97967.52
2017-07-10T15:29:53.032Z,97963.22
2017-07-10T15:32:22.502Z,97962.94
2017-07-10T15:34:52.006Z,97953.41
2017-07-10T15:37:21.261Z,97948.88
2017-07-10T15:39:50.717Z,97940.09
2017-07-10T15:42:20.241Z,97943.56
2017-07-10T15:44:49.674Z,97932.11
2017-07-10T15:47:19.124Z,97925.78
2017-07-10T15:49:48.567Z,97926.53
2017-07-10T15:52:18.069Z,97942.38
2017-07-10T15:54:47.510Z,97934.55
2017-07-10T15:57:16.974Z,97927.75
2017-07-10T15:59:46.501Z,97925.34
2017-07-10T16:02:15.946Z,97932.58
2017-07-10T16:04:45.397Z,97932.66
2017-07-10T16:07:14.870Z,97932.14
2017-07-10T16:09:44.125Z,97936.06
2017-07-10T16:12:13.635Z,97933.27
2017-07-10T16:14:43.077Z,97922.86
2017-07-10T16:17:12.531Z,97929.90
2017-07-10T16:19:41.986Z,97925.18
2017-07-10T16:22:11.437Z,97922.94
2017-07-10T16:24:40.885Z,97920.67
2017-07-10T16:27:10.327Z,97917.44
2017-07-10T16:29:39.918Z,97911.59
2017-07-10T16:32:09.409Z,97910.22
2017-07-10T16:34:38.837Z,97916.45
2017-07-10T16:37:08.369Z,97916.20
2017-07-10T16:39:37.808Z,97911.36
2017-07-10T16:42:07.266Z,97923.55
2017-07-10T16:44:36.726Z,97924.73
2017-07-10T16:47:06.203Z,97919.55
2017-07-10T16:49:35.627Z,97915.64
2017-07-10T16:52:05.094Z,97907.39
2017-07-10T16:54:34.538Z,97912.89
2017-07-10T16:57:03.991Z,97906.41
2017-07-10T16:59:33.458Z,97902.98
2017-07-10T17:02:02.915Z,97901.80
2017-07-10T17:04:32.371Z,97905.27
2017-07-10T17:07:01.821Z,97900.25
2017-07-10T17:09:31.283Z,97891.06
2017-07-10T17:12:00.727Z,97887.42
2017-07-10T17:14:30.157Z,97886.69
2017-07-10T17:16:59.619Z,97884.70
2017-07-10T17:19:29.077Z,97892.80
2017-07-10T17:21:58.518Z,97888.35
2017-07-10T17:24:27.953Z,97888.77
2017-07-10T17:26:57.407Z,97886.55
2017-07-10T17:29:26.863Z,97887.11
2017-07-10T17:31:56.340Z,97883.33
2017-07-10T17:34:25.782Z,97879.17
2017-07-10T17:36:55.239Z,97882.22
2017-07-10T17:39:24.691Z,97881.31
2017-07-10T17:41:54.149Z,97884.17
2017-07-10T17:44:23.602Z,97884.61
2017-07-10T17:46:53.064Z,97887.05
2017-07-10T17:49:22.509Z,97884.31
2017-07-10T17:51:51.966Z,97880.99
2017-07-10T17:54:21.426Z,97887.94
2017-07-10T17:56:50.867Z,97890.92
2017-07-10T17:59:20.332Z,97893.47
2017-07-10T18:01:49.776Z,97899.55
2017-07-10T18:04:19.223Z,97902.98
2017-07-10T18:06:48.679Z,97901.72
2017-07-10T18:09:18.141Z,97900.72
2017-07-10T18:11:48.433Z,97902.03
2017-07-10T18:14:17.895Z,97903.05
2017-07-10T18:16:47.349Z,97900.19
2017-07-10T18:19:16.846Z,97891.88
2017-07-10T18:21:46.282Z,97885.92
2017-07-10T18:24:15.804Z,97884.49
2017-07-10T18:26:45.269Z,97889.69
2017-07-10T18:29:14.714Z,97880.88
2017-07-10T18:31:44.171Z,97881.66
2017-07-10T18:34:13.644Z,97878.23
2017-07-10T18:36:43.105Z,97874.42
2017-07-10T18:39:12.554Z,97878.21
2017-07-10T18:41:42.008Z,97876.89
2017-07-10T18:44:11.482Z,97874.77
2017-07-10T18:46:41.167Z,97880.33
2017-07-10T18:49:10.650Z,97881.55
2017-07-10T18:51:40.903Z,97878.20
2017-07-10T18:54:10.350Z,97872.55
2017-07-10T18:56:39.857Z,97874.13
2017-07-10T18:59:09.295Z,97868.94
2017-07-10T19:01:38.755Z,97873.09
2017-07-10T19:04:08.198Z,97877.20
2017-07-10T19:06:37.645Z,97876.12
2017-07-10T19:09:07.186Z,97877.30
2017-07-10T19:11:36.619Z,97879.69
2017-07-10T19:14:06.119Z,97888.48
2017-07-10T19:16:35.577Z,97890.56
2017-07-10T19:19:05.015Z,97888.37
2017-07-10T19:21:34.483Z,97895.73
2017-07-10T19:24:03.959Z,97897.40
2017-07-10T19:26:33.418Z,97902.21
2017-07-10T19:29:02.913Z,97913.11
2017-07-10T19:31:32.359Z,97919.14
2017-07-10T19:34:01.813Z,97928.98
2017-07-10T19:36:31.272Z,97933.41
2017-07-10T19:39:00.936Z,97942.91
2017-07-10T19:41:30.402Z,97947.57
2017-07-10T19:43:59.862Z,97949.91
2017-07-10T19:46:29.403Z,97944.89
2017-07-10T19:48:58.843Z,97949.92
2017-07-10T19:51:28.716Z,97947.15
2017-07-10T19:53:58.397Z,97948.90
2017-07-10T19:56:27.884Z,97949.55
2017-07-10T19:58:57.427Z,97974.66
2017-07-10T20:01:26.701Z,98000.45
2017-07-10T20:03:56.333Z,98029.38
2017-07-10T20:06:25.906Z,98068.83
2017-07-10T20:08:55.598Z,98090.33
2017-07-10T20:11:25.216Z,98109.63
2017-07-10T20:13:54.668Z,98123.30
2017-07-10T20:16:24.130Z,98124.41
2017-07-10T20:18:54.525Z,98121.53
2017-07-10T20:21:24.679Z,98126.67
2017-07-10T20:23:54.489Z,98128.19
2017-07-10T20:26:24.132Z,98141.02
2017-07-10T20:28:53.438Z,98142.88
2017-07-10T20:31:23.023Z,98154.39
2017-07-10T20:33:52.526Z,98164.13
2017-07-10T20:36:22.077Z,98183.06
2017-07-10T20:38:51.545Z,98191.28
2017-07-10T20:41:21.357Z,98208.53
2017-07-10T20:43:51.085Z,98217.25
2017-07-10T20:46:20.831Z,98217.34
2017-07-10T20:48:50.686Z,98207.30
2017-07-10T20:51:20.337Z,98189.73
2017-07-10T20:53:50.073Z,98179.44
2017-07-10T20:56:19.905Z,98171.44
2017-07-10T20:58:49.594Z,98164.94
2017-07-10T21:01:19.060Z,98175.55
2017-07-10T21:03:48.995Z,98179.04
2017-07-10T21:06:18.958Z,98187.89
2017-07-10T21:08:48.624Z,98197.42
2017-07-10T21:11:17.923Z,98188.09
2017-07-10T21:13:47.503Z,98195.41
2017-07-10T21:16:17.285Z,98201.08
2017-07-10T21:18:46.913Z,98198.70
2017-07-10T21:21:16.386Z,98210.47
2017-07-10T21:23:45.849Z,98210.82
2017-07-10T21:26:15.666Z,98222.81
2017-07-10T21:28:45.396Z,98235.73
2017-07-10T21:31:15.091Z,98243.54
2017-07-10T21:33:44.563Z,98250.86
2017-07-10T21:36:14.392Z,98248.63
2017-07-10T21:38:44.163Z,98240.25
2017-07-10T21:41:13.974Z,98228.89
2017-07-10T21:43:43.514Z,98228.89
2017-07-10T21:46:13.012Z,98222.77
2017-07-10T21:48:42.701Z,98228.09
2017-07-10T21:51:12.439Z,98227.84
2017-07-10T21:53:42.008Z,98228.64
2017-07-10T21:56:11.622Z,98233.00
2017-07-10T21:58:41.073Z,98237.61
2017-07-10T22:01:10.598Z,98243.34
2017-07-10T22:03:40.293Z,98244.95
2017-07-10T22:06:09.762Z,98247.51
2017-07-10T22:08:40.279Z,98244.05
2017-07-10T22:11:09.987Z,98244.14
2017-07-10T22:13:39.423Z,98246.32
2017-07-10T22:16:08.878Z,98250.34
2017-07-10T22:18:38.358Z,98250.43
2017-07-10T22:21:07.815Z,98247.53
2017-07-10T22:23:37.299Z,98244.30
2017-07-10T22:26:06.758Z,98238.34
2017-07-10T22:28:36.213Z,98246.52
2017-07-10T22:31:05.647Z,98247.89
2017-07-10T22:33:35.099Z,98247.41
2017-07-10T22:36:04.542Z,98245.88
2017-07-10T22:38:33.983Z,98251.42
2017-07-10T22:41:03.433Z,98252.08
2017-07-10T22:43:32.886Z,98242.34
2017-07-10T22:46:02.362Z,98238.89
2017-07-10T22:48:31.822Z,98240.88
2017-07-10T22:51:01.266Z,98240.33
2017-07-10T22:53:30.706Z,98234.79
2017-07-10T22:56:00.185Z,98242.81
2017-07-10T22:58:29.629Z,98251.03
2017-07-10T23:00:59.077Z,98246.92
2017-07-10T23:03:28.536Z,98245.48
2017-07-10T23:05:57.989Z,98247.67
2017-07-10T23:08:27.451Z,98247.32
2017-07-10T23:10:56.931Z,98254.98
2017-07-10T23:13:26.373Z,98252.53
2017-07-10T23:15:55.832Z,98243.88
2017-07-10T23:18:25.284Z,98242.36
2017-07-10T23:20:54.735Z,98249.20
2017-07-10T23:23:24.210Z,98250.00
2017-07-10T23:25:53.650Z,98245.71
2017-07-10T23:28:23.089Z,98253.20
2017-07-10T23:30:52.548Z,98246.28
2017-07-10T23:33:22.028Z,98244.36
2017-07-10T23:35:51.471Z,98245.50
2017-07-10T23:38:20.910Z,98248.47
2017-07-10T23:40:50.365Z,98252.95
2017-07-10T23:43:19.820Z,98254.81
2017-07-10T23:45:50.209Z,98244.41
2017-07-10T23:48:19.648Z,98246.28
2017-07-10T23:50:49.103Z,98246.03
2017-07-10T23:53:18.546Z,98250.14
2017-07-10T23:55:47.997Z,98247.91
2017-07-10T23:58:17.453Z,98251.43
